createdAt,value
2022-09-18T00:01:38.101Z,8.32
2022-09-18T00:04:09.245Z,8.26
2022-09-18T00:06:40.045Z,8.33
2022-09-18T00:09:10.300Z,8.27
2022-09-18T00:11:40.149Z,8.26
2022-09-18T00:14:10.032Z,8.14
2022-09-18T00:16:39.292Z,8.15
2022-09-18T00:19:09.400Z,8.18
2022-09-18T00:21:37.676Z,8.07
2022-09-18T00:24:06.200Z,8.05
2022-09-18T00:26:35.469Z,8.07
2022-09-18T00:29:03.900Z,8.17
2022-09-18T00:31:33.524Z,8.08
2022-09-18T00:34:04.041Z,8.08
2022-09-18T00:36:33.341Z,8.16
2022-09-18T00:39:02.510Z,8.22
2022-09-18T00:41:32.587Z,8.12
2022-09-18T00:44:31.745Z,8.07
2022-09-18T00:47:04.631Z,8.00
2022-09-18T00:49:33.366Z,8.07
2022-09-18T00:52:03.629Z,8.01
2022-09-18T00:54:34.382Z,7.97
2022-09-18T00:57:05.909Z,8.05
2022-09-18T00:59:35.781Z,8.13
2022-09-18T01:02:04.498Z,8.23
2022-09-18T01:04:33.306Z,8.20
2022-09-18T01:07:08.764Z,8.19
2022-09-18T01:09:44.468Z,8.14
2022-09-18T01:12:20.651Z,8.20
2022-09-18T01:14:54.616Z,8.17
2022-09-18T01:17:27.355Z,8.03
2022-09-18T01:20:27.458Z,8.04
2022-09-18T01:23:12.573Z,7.97
2022-09-18T01:25:51.957Z,7.96
2022-09-18T01:28:26.751Z,7.99
2022-09-18T01:30:58.527Z,7.84
2022-09-18T01:33:32.364Z,7.85
2022-09-18T01:36:04.149Z,7.97
2022-09-18T01:38:36.025Z,7.93
2022-09-18T01:41:10.887Z,7.93
2022-09-18T01:43:40.896Z,8.02
2022-09-18T01:46:12.878Z,8.06
2022-09-18T01:48:44.885Z,8.16
2022-09-18T01:51:16.534Z,8.09
2022-09-18T01:53:47.903Z,8.04
2022-09-18T01:56:20.820Z,8.00
2022-09-18T01:58:52.609Z,8.09
2022-09-18T02:01:23.488Z,8.04
2022-09-18T02:03:54.958Z,8.01
2022-09-18T02:06:26.471Z,8.06
2022-09-18T02:08:56.863Z,8.07
2022-09-18T02:11:25.496Z,8.14
2022-09-18T02:13:59.009Z,8.09
2022-09-18T02:16:44.115Z,8.13
2022-09-18T02:19:18.308Z,8.10
2022-09-18T02:21:48.393Z,8.18
2022-09-18T02:24:18.566Z,8.10
2022-09-18T02:26:48.097Z,8.16
2022-09-18T02:29:18.728Z,8.18
2022-09-18T02:31:46.977Z,8.18
2022-09-18T02:34:15.230Z,8.22
2022-09-18T02:36:56.998Z,8.22
2022-09-18T02:39:36.547Z,8.24
2022-09-18T02:42:15.280Z,8.12
2022-09-18T02:44:50.499Z,8.24
2022-09-18T02:47:30.392Z,8.33
2022-09-18T02:50:07.685Z,8.29
2022-09-18T02:52:41.062Z,8.35
2022-09-18T02:55:11.803Z,8.32
2022-09-18T02:57:45.319Z,8.15
2022-09-18T03:00:18.703Z,8.20
2022-09-18T03:02:51.148Z,8.19
2022-09-18T03:05:31.671Z,8.22
2022-09-18T03:08:02.597Z,8.30
2022-09-18T03:10:31.837Z,8.34
2022-09-18T03:12:59.798Z,8.31
2022-09-18T03:15:29.076Z,8.20
2022-09-18T03:17:58.165Z,8.22
2022-09-18T03:20:26.225Z,8.29
2022-09-18T03:22:54.306Z,8.31
2022-09-18T03:25:22.278Z,8.30
2022-09-18T03:27:50.428Z,8.28
2022-09-18T03:30:26.853Z,8.20
2022-09-18T03:32:56.481Z,8.10
2022-09-18T03:35:24.502Z,8.08
2022-09-18T03:37:52.624Z,8.20
2022-09-18T03:40:23.320Z,8.16
2022-09-18T03:42:51.853Z,8.15
2022-09-18T03:45:20.040Z,8.15
2022-09-18T03:47:48.764Z,8.11
2022-09-18T03:50:18.405Z,8.13
2022-09-18T03:52:50.492Z,8.24
2022-09-18T03:55:37.921Z,8.22
2022-09-18T03:58:25.969Z,8.10
2022-09-18T04:01:13.630Z,8.25
2022-09-18T04:04:01.567Z,8.23
2022-09-18T04:07:03.925Z,8.28
2022-09-18T04:09:43.829Z,8.27
2022-09-18T04:12:12.107Z,8.28
2022-09-18T04:14:40.564Z,8.27
2022-09-18T04:17:08.935Z,8.28
2022-09-18T04:19:36.886Z,8.24
2022-09-18T04:22:06.261Z,8.28
2022-09-18T04:24:35.378Z,8.22
2022-09-18T04:27:07.639Z,8.23
2022-09-18T04:29:35.851Z,8.34
2022-09-18T04:32:05.474Z,8.33
2022-09-18T04:34:33.495Z,8.37
2022-09-18T04:37:01.586Z,8.25
2022-09-18T04:39:33.631Z,8.17
2022-09-18T04:42:04.813Z,8.20
2022-09-18T04:44:33.283Z,8.22
2022-09-18T04:47:01.376Z,8.22
2022-09-18T04:49:29.353Z,8.28
2022-09-18T04:51:57.368Z,8.30
2022-09-18T04:54:25.703Z,8.28
2022-09-18T04:56:55.060Z,8.20
2022-09-18T04:59:22.961Z,8.19
2022-09-18T05:01:55.811Z,8.20
2022-09-18T05:04:48.890Z,8.11
2022-09-18T05:07:27.660Z,8.08
2022-09-18T05:09:56.157Z,8.12
2022-09-18T05:12:25.448Z,8.12
2022-09-18T05:14:53.488Z,8.10
2022-09-18T05:17:21.522Z,8.15
2022-09-18T05:20:05.650Z,8.12
2022-09-18T05:22:39.003Z,8.17
2022-09-18T05:25:11.464Z,8.17
2022-09-18T05:27:40.843Z,8.17
2022-09-18T05:30:11.190Z,8.17
2022-09-18T05:32:59.151Z,8.20
2022-09-18T05:35:29.689Z,8.22
2022-09-18T05:37:59.352Z,8.20
2022-09-18T05:40:31.013Z,8.32
2022-09-18T05:43:03.045Z,8.19
2022-09-18T05:45:33.692Z,8.24
2022-09-18T05:48:06.070Z,8.29
2022-09-18T05:50:36.404Z,8.27
2022-09-18T05:53:07.006Z,8.27
2022-09-18T05:55:44.122Z,8.30
2022-09-18T05:58:15.379Z,8.30
2022-09-18T06:00:44.746Z,8.28
2022-09-18T06:03:19.625Z,8.24
2022-09-18T06:05:53.558Z,8.27
2022-09-18T06:08:22.729Z,8.29
2022-09-18T06:10:50.833Z,8.36
2022-09-18T06:13:20.312Z,8.36
2022-09-18T06:15:52.904Z,8.39
2022-09-18T06:18:35.619Z,8.41
2022-09-18T06:21:04.721Z,8.49
2022-09-18T06:23:32.783Z,8.50
2022-09-18T06:26:09.437Z,8.48
2022-09-18T06:28:42.504Z,8.48
2022-09-18T06:31:11.158Z,8.52
2022-09-18T06:34:01.924Z,8.54
2022-09-18T06:36:29.866Z,8.55
2022-09-18T06:39:04.951Z,8.61
2022-09-18T06:41:33.686Z,8.63
2022-09-18T06:44:06.981Z,8.67
2022-09-18T06:46:43.486Z,8.68
2022-09-18T06:49:23.541Z,8.76
2022-09-18T06:51:51.533Z,8.76
2022-09-18T06:54:19.504Z,8.79
2022-09-18T06:56:47.994Z,8.79
2022-09-18T06:59:19.562Z,8.87
2022-09-18T07:01:48.634Z,8.84
2022-09-18T07:04:21.884Z,8.92
2022-09-18T07:06:50.223Z,8.95
2022-09-18T07:09:18.868Z,8.96
2022-09-18T07:12:01.357Z,8.92
2022-09-18T07:14:38.006Z,9.01
2022-09-18T07:17:18.227Z,9.07
2022-09-18T07:19:49.871Z,9.09
2022-09-18T07:22:20.145Z,9.10
2022-09-18T07:24:48.841Z,9.09
2022-09-18T07:27:17.078Z,9.15
2022-09-18T07:29:50.275Z,9.18
2022-09-18T07:32:20.506Z,9.12
2022-09-18T07:34:49.989Z,9.18
2022-09-18T07:37:25.480Z,9.22
2022-09-18T07:40:09.516Z,9.23
2022-09-18T07:43:15.936Z,9.29
2022-09-18T07:45:52.749Z,9.31
2022-09-18T07:48:21.578Z,9.40
2022-09-18T07:50:51.992Z,9.39
2022-09-18T07:53:21.348Z,9.42
2022-09-18T07:55:53.373Z,9.46
2022-09-18T07:58:21.396Z,9.43
2022-09-18T08:01:00.628Z,9.54
2022-09-18T08:03:29.411Z,9.46
2022-09-18T08:06:20.593Z,9.42
2022-09-18T08:09:05.812Z,9.51
2022-09-18T08:11:54.185Z,9.47
2022-09-18T08:14:31.652Z,9.45
2022-09-18T08:17:21.196Z,9.48
2022-09-18T08:20:04.368Z,9.50
2022-09-18T08:22:46.855Z,9.54
2022-09-18T08:25:15.946Z,9.54
2022-09-18T08:27:48.723Z,9.52
2022-09-18T08:30:23.026Z,9.52
2022-09-18T08:33:00.465Z,9.49
2022-09-18T08:35:28.900Z,9.50
2022-09-18T08:38:02.280Z,9.54
2022-09-18T08:40:59.815Z,9.51
2022-09-18T08:43:46.049Z,9.56
2022-09-18T08:46:17.195Z,9.62
2022-09-18T08:48:53.638Z,9.58
2022-09-18T08:51:26.048Z,9.64
2022-09-18T08:53:58.731Z,9.64
2022-09-18T08:56:37.097Z,9.65
2022-09-18T08:59:18.119Z,9.66
2022-09-18T09:01:53.406Z,9.66
2022-09-18T09:04:25.505Z,9.71
2022-09-18T09:07:02.863Z,9.77
2022-09-18T09:09:47.327Z,9.83
2022-09-18T09:12:44.803Z,9.78
2022-09-18T09:15:21.701Z,9.80
2022-09-18T09:17:59.642Z,9.87
2022-09-18T09:20:37.562Z,9.81
2022-09-18T09:23:16.252Z,9.87
2022-09-18T09:25:50.831Z,9.81
2022-09-18T09:28:30.606Z,9.88
2022-09-18T09:31:36.207Z,9.92
2022-09-18T09:34:40.956Z,9.89
2022-09-18T09:37:40.978Z,9.87
2022-09-18T09:40:15.714Z,9.95
2022-09-18T09:42:46.610Z,10.04
2022-09-18T09:45:16.898Z,10.05
2022-09-18T09:47:46.991Z,10.03
2022-09-18T09:50:27.420Z,10.01
2022-09-18T09:52:59.270Z,10.02
2022-09-18T09:55:29.865Z,10.07
2022-09-18T09:58:06.526Z,10.14
2022-09-18T10:00:37.828Z,10.22
2022-09-18T10:03:24.641Z,10.22
2022-09-18T10:05:58.890Z,10.19
2022-09-18T10:08:34.487Z,10.24
2022-09-18T10:11:08.786Z,10.25
2022-09-18T10:13:41.359Z,10.34
2022-09-18T10:16:13.935Z,10.44
2022-09-18T10:18:44.382Z,10.46
2022-09-18T10:21:14.892Z,10.41
2022-09-18T10:23:46.250Z,10.53
2022-09-18T10:26:20.384Z,10.59
2022-09-18T10:28:48.756Z,10.72
2022-09-18T10:31:18.054Z,10.66
2022-09-18T10:33:53.113Z,10.73
2022-09-18T10:36:30.199Z,10.74
2022-09-18T10:39:18.173Z,10.89
2022-09-18T10:41:47.718Z,10.98
2022-09-18T10:44:22.483Z,10.91
2022-09-18T10:47:00.302Z,10.99
2022-09-18T10:49:32.596Z,11.07
2022-09-18T10:52:22.587Z,11.16
2022-09-18T10:55:17.476Z,11.08
2022-09-18T10:58:08.296Z,11.02
2022-09-18T11:00:43.142Z,11.06
2022-09-18T11:03:20.942Z,10.99
2022-09-18T11:05:52.598Z,10.90
2022-09-18T11:08:23.708Z,10.96
2022-09-18T11:10:59.170Z,11.01
2022-09-18T11:13:28.676Z,10.93
2022-09-18T11:15:58.523Z,10.98
2022-09-18T11:18:29.106Z,11.06
2022-09-18T11:20:58.441Z,10.90
2022-09-18T11:23:28.996Z,10.99
2022-09-18T11:26:19.363Z,10.92
2022-09-18T11:29:03.311Z,11.02
2022-09-18T11:31:41.035Z,11.16
2022-09-18T11:34:20.445Z,11.16
2022-09-18T11:36:51.119Z,11.24
2022-09-18T11:39:24.735Z,11.24
2022-09-18T11:41:56.685Z,11.27
2022-09-18T11:44:27.715Z,11.37
2022-09-18T11:47:23.927Z,11.35
2022-09-18T11:49:56.933Z,11.18
2022-09-18T11:52:29.137Z,11.25
2022-09-18T11:55:05.530Z,11.35
2022-09-18T11:57:38.399Z,11.31
2022-09-18T12:00:11.476Z,11.26
2022-09-18T12:02:51.108Z,11.17
2022-09-18T12:05:23.673Z,10.89
2022-09-18T12:07:59.575Z,10.97
2022-09-18T12:10:39.891Z,10.93
2022-09-18T12:13:24.914Z,10.96
2022-09-18T12:15:59.104Z,10.89
2022-09-18T12:18:29.558Z,10.82
2022-09-18T12:21:00.852Z,10.83
2022-09-18T12:23:29.847Z,10.86
2022-09-18T12:26:07.888Z,11.00
2022-09-18T12:28:55.337Z,11.09
2022-09-18T12:31:30.156Z,11.18
2022-09-18T12:34:02.433Z,11.29
2022-09-18T12:36:41.255Z,11.47
2022-09-18T12:39:23.931Z,11.56
2022-09-18T12:42:00.967Z,11.64
2022-09-18T12:44:54.852Z,11.71
2022-09-18T12:47:34.474Z,11.72
2022-09-18T12:50:15.370Z,11.67
2022-09-18T12:53:08.212Z,11.74
2022-09-18T12:55:50.512Z,11.78
2022-09-18T12:58:39.772Z,11.78
2022-09-18T13:01:27.282Z,11.73
2022-09-18T13:03:57.383Z,11.79
2022-09-18T13:06:31.481Z,11.84
2022-09-18T13:09:02.573Z,11.89
2022-09-18T13:11:33.890Z,11.99
2022-09-18T13:14:05.193Z,12.09
2022-09-18T13:16:37.957Z,12.10
2022-09-18T13:19:10.710Z,12.15
2022-09-18T13:21:41.777Z,12.17
2022-09-18T13:24:13.523Z,12.25
2022-09-18T13:26:42.615Z,12.25
2022-09-18T13:29:43.906Z,12.26
2022-09-18T13:32:14.038Z,12.11
2022-09-18T13:34:51.309Z,12.03
2022-09-18T13:37:22.742Z,12.08
2022-09-18T13:40:09.182Z,12.14
2022-09-18T13:42:40.491Z,12.19
2022-09-18T13:45:18.730Z,12.19
2022-09-18T13:48:04.623Z,12.28
2022-09-18T13:50:33.864Z,12.33
2022-09-18T13:53:03.995Z,12.40
2022-09-18T13:55:38.502Z,12.49
2022-09-18T13:58:39.216Z,12.38
2022-09-18T14:01:08.311Z,12.50
2022-09-18T14:04:49.842Z,12.57
2022-09-18T14:07:45.292Z,12.42
2022-09-18T14:10:24.214Z,12.43
2022-09-18T14:13:37.587Z,12.53
2022-09-18T14:16:12.874Z,12.56
2022-09-18T14:18:56.264Z,12.53
2022-09-18T14:21:48.797Z,12.56
2022-09-18T14:24:40.592Z,12.76
2022-09-18T14:27:34.330Z,12.88
2022-09-18T14:30:11.876Z,12.78
2022-09-18T14:32:40.340Z,12.62
2022-09-18T14:35:29.947Z,12.66
2022-09-18T14:37:57.952Z,12.60
2022-09-18T14:40:28.368Z,12.56
2022-09-18T14:42:56.486Z,12.55
2022-09-18T14:45:28.163Z,12.56
2022-09-18T14:47:56.636Z,12.53
2022-09-18T14:50:28.803Z,12.52
2022-09-18T14:52:58.040Z,12.67
2022-09-18T14:55:35.192Z,12.71
2022-09-18T14:58:06.553Z,12.66
2022-09-18T15:00:36.431Z,12.75
2022-09-18T15:03:07.881Z,12.75
2022-09-18T15:05:36.377Z,12.76
2022-09-18T15:08:29.135Z,12.78
2022-09-18T15:10:59.517Z,12.74
2022-09-18T15:13:29.069Z,12.79
2022-09-18T15:16:01.856Z,12.69
2022-09-18T15:18:31.356Z,12.79
2022-09-18T15:21:01.907Z,12.77
2022-09-18T15:23:31.191Z,12.83
2022-09-18T15:26:03.600Z,12.73
2022-09-18T15:28:33.842Z,12.65
2022-09-18T15:31:04.819Z,12.70
2022-09-18T15:33:35.051Z,12.54
2022-09-18T15:36:04.967Z,12.53
2022-09-18T15:38:42.925Z,12.65
2022-09-18T15:41:35.876Z,12.54
2022-09-18T15:44:04.011Z,12.52
2022-09-18T15:46:34.121Z,12.45
2022-09-18T15:49:04.240Z,12.47
2022-09-18T15:51:33.755Z,12.43
2022-09-18T15:54:24.061Z,12.36
2022-09-18T15:56:54.900Z,12.44
2022-09-18T15:59:28.999Z,12.32
2022-09-18T16:01:57.866Z,12.32
2022-09-18T16:04:28.572Z,12.35
2022-09-18T16:07:01.825Z,12.45
2022-09-18T16:09:38.233Z,12.26
2022-09-18T16:12:39.906Z,12.21
2022-09-18T16:15:20.167Z,12.25
2022-09-18T16:18:04.422Z,12.23
2022-09-18T16:20:38.259Z,12.19
2022-09-18T16:23:21.004Z,12.23
2022-09-18T16:26:08.379Z,12.22
2022-09-18T16:28:42.640Z,12.16
2022-09-18T16:31:12.077Z,12.06
2022-09-18T16:33:50.208Z,11.97
2022-09-18T16:36:27.437Z,11.94
2022-09-18T16:38:55.680Z,11.99
2022-09-18T16:41:23.746Z,11.98
2022-09-18T16:43:53.930Z,12.00
2022-09-18T16:46:23.815Z,12.03
2022-09-18T16:48:52.302Z,11.92
2022-09-18T16:51:21.910Z,11.83
2022-09-18T16:53:50.630Z,11.79
2022-09-18T16:56:22.278Z,11.80
2022-09-18T16:58:52.918Z,11.78
2022-09-18T17:01:23.188Z,11.78
2022-09-18T17:03:51.662Z,11.69
2022-09-18T17:06:19.788Z,11.69
2022-09-18T17:08:48.289Z,11.71
2022-09-18T17:11:16.284Z,11.68
2022-09-18T17:13:44.289Z,11.78
2022-09-18T17:16:26.104Z,11.72
2022-09-18T17:19:01.996Z,11.62
2022-09-18T17:21:30.087Z,11.67
2022-09-18T17:23:58.132Z,11.78
2022-09-18T17:26:28.519Z,11.70
2022-09-18T17:28:56.792Z,11.76
2022-09-18T17:31:26.506Z,11.76
2022-09-18T17:33:55.261Z,11.87
2022-09-18T17:36:23.865Z,11.74
2022-09-18T17:38:52.370Z,11.66
2022-09-18T17:41:21.451Z,11.63
2022-09-18T17:43:52.327Z,11.56
2022-09-18T17:46:20.968Z,11.61
2022-09-18T17:48:54.454Z,11.53
2022-09-18T17:51:27.669Z,11.52
2022-09-18T17:53:58.812Z,11.53
2022-09-18T17:56:29.890Z,11.42
2022-09-18T17:58:59.863Z,11.44
2022-09-18T18:01:29.306Z,11.52
2022-09-18T18:03:58.742Z,11.50
2022-09-18T18:06:26.982Z,11.49
2022-09-18T18:08:56.110Z,11.49
2022-09-18T18:11:25.249Z,11.52
2022-09-18T18:13:54.479Z,11.51
2022-09-18T18:16:24.183Z,11.60
2022-09-18T18:18:57.281Z,11.54
2022-09-18T18:21:27.596Z,11.48
2022-09-18T18:23:56.914Z,11.57
2022-09-18T18:26:25.477Z,11.49
2022-09-18T18:28:55.493Z,11.45
2022-09-18T18:31:25.645Z,11.30
2022-09-18T18:33:54.880Z,11.19
2022-09-18T18:36:24.565Z,11.34
2022-09-18T18:38:56.099Z,11.26
2022-09-18T18:41:25.727Z,11.29
2022-09-18T18:43:55.448Z,11.31
2022-09-18T18:46:25.233Z,11.25
2022-09-18T18:49:00.012Z,11.31
2022-09-18T18:51:28.681Z,11.30
2022-09-18T18:54:00.265Z,11.39
2022-09-18T18:56:28.282Z,11.23
2022-09-18T18:58:57.264Z,11.33
2022-09-18T19:01:25.853Z,11.36
2022-09-18T19:03:59.935Z,11.25
2022-09-18T19:06:28.748Z,11.31
2022-09-18T19:08:59.275Z,11.16
2022-09-18T19:11:28.791Z,11.13
2022-09-18T19:13:57.808Z,11.12
2022-09-18T19:16:27.164Z,11.13
2022-09-18T19:18:58.538Z,11.08
2022-09-18T19:21:27.337Z,11.22
2022-09-18T19:23:58.978Z,11.19
2022-09-18T19:26:29.703Z,11.08
2022-09-18T19:28:59.226Z,11.15
2022-09-18T19:31:28.277Z,11.13
2022-09-18T19:33:57.879Z,11.14
2022-09-18T19:36:28.267Z,11.14
2022-09-18T19:38:57.429Z,11.10
2022-09-18T19:41:33.071Z,11.18
2022-09-18T19:44:02.669Z,11.15
2022-09-18T19:46:55.805Z,11.11
2022-09-18T19:49:26.698Z,11.14
2022-09-18T19:51:55.762Z,11.15
2022-09-18T19:54:24.263Z,11.17
2022-09-18T19:56:53.632Z,11.19
2022-09-18T19:59:21.612Z,11.26
2022-09-18T20:01:49.652Z,11.24
2022-09-18T20:04:17.807Z,11.10
2022-09-18T20:06:45.831Z,11.17
2022-09-18T20:09:13.798Z,11.21
2022-09-18T20:11:45.338Z,11.23
2022-09-18T20:14:18.358Z,11.24
2022-09-18T20:16:46.391Z,11.20
2022-09-18T20:19:14.614Z,11.19
2022-09-18T20:21:43.433Z,11.04
2022-09-18T20:24:11.542Z,11.05
2022-09-18T20:26:39.600Z,11.05
2022-09-18T20:29:07.603Z,11.11
2022-09-18T20:31:37.160Z,11.22
2022-09-18T20:34:05.917Z,11.09
2022-09-18T20:36:34.027Z,11.19
2022-09-18T20:39:03.678Z,11.14
2022-09-18T20:41:31.774Z,11.11
2022-09-18T20:44:05.053Z,11.08
2022-09-18T20:46:37.118Z,11.12
2022-09-18T20:49:08.182Z,11.11
2022-09-18T20:51:36.711Z,11.21
2022-09-18T20:54:08.226Z,11.19
2022-09-18T20:56:41.371Z,11.08
2022-09-18T20:59:10.583Z,11.08
2022-09-18T21:02:03.490Z,11.01
2022-09-18T21:04:32.934Z,10.95
2022-09-18T21:07:01.676Z,11.10
2022-09-18T21:09:31.089Z,10.86
2022-09-18T21:11:59.168Z,10.66
2022-09-18T21:14:27.540Z,10.62
2022-09-18T21:16:56.037Z,10.51
2022-09-18T21:19:26.220Z,10.19
2022-09-18T21:21:55.841Z,10.17
2022-09-18T21:24:23.875Z,10.20
2022-09-18T21:26:51.901Z,10.05
2022-09-18T21:29:22.643Z,10.03
2022-09-18T21:31:52.011Z,9.95
2022-09-18T21:34:23.443Z,9.90
2022-09-18T21:36:52.069Z,9.80
2022-09-18T21:39:21.672Z,9.77
2022-09-18T21:41:53.171Z,9.74
2022-09-18T21:44:27.022Z,9.76
2022-09-18T21:47:01.973Z,9.72
2022-09-18T21:49:30.527Z,9.74
2022-09-18T21:52:00.100Z,9.68
2022-09-18T21:54:30.365Z,9.63
2022-09-18T21:56:58.528Z,9.64
2022-09-18T21:59:27.580Z,9.67
2022-09-18T22:01:55.797Z,9.68
2022-09-18T22:04:26.275Z,9.78
2022-09-18T22:06:55.618Z,9.78
2022-09-18T22:09:25.330Z,9.79
2022-09-18T22:11:55.837Z,9.85
2022-09-18T22:14:28.589Z,9.87
2022-09-18T22:16:56.609Z,9.74
2022-09-18T22:19:24.647Z,9.72
2022-09-18T22:21:53.107Z,9.70
2022-09-18T22:24:22.778Z,9.62
2022-09-18T22:26:52.750Z,9.65
2022-09-18T22:29:23.561Z,9.63
2022-09-18T22:31:52.047Z,9.60
2022-09-18T22:34:22.986Z,9.51
2022-09-18T22:36:51.239Z,9.44
2022-09-18T22:39:20.792Z,9.44
2022-09-18T22:41:49.173Z,9.41
2022-09-18T22:44:17.177Z,9.40
2022-09-18T22:46:47.269Z,9.48
2022-09-18T22:49:16.698Z,9.49
2022-09-18T22:51:45.344Z,9.44
2022-09-18T22:54:15.114Z,9.53
2022-09-18T22:56:46.257Z,9.51
2022-09-18T22:59:15.616Z,9.60
2022-09-18T23:01:47.762Z,9.59
2022-09-18T23:04:18.564Z,9.51
2022-09-18T23:06:47.287Z,9.58
2022-09-18T23:09:15.794Z,9.59
2022-09-18T23:11:44.785Z,9.48
2022-09-18T23:14:14.589Z,9.45
2022-09-18T23:16:42.724Z,9.40
2022-09-18T23:19:16.435Z,9.30
2022-09-18T23:21:44.533Z,9.31
2022-09-18T23:24:12.987Z,9.20
2022-09-18T23:26:42.757Z,9.15
2022-09-18T23:29:12.939Z,9.10
2022-09-18T23:31:42.650Z,9.08
2022-09-18T23:34:13.071Z,9.07
2022-09-18T23:36:44.107Z,8.94
2022-09-18T23:39:14.503Z,8.92
2022-09-18T23:41:43.335Z,9.04
2022-09-18T23:44:13.413Z,8.91
2022-09-18T23:46:42.017Z,8.99
2022-09-18T23:49:12.230Z,8.94
2022-09-18T23:51:46.088Z,8.94
2022-09-18T23:54:17.316Z,8.91
2022-09-18T23:56:45.965Z,8.92
2022-09-18T23:59:15.989Z,8.91
